sensor_id;sensor_type;location;lat;lon;timestamp;P1;durP1;ratioP1;P2;durP2;ratioP2
81894;SDS011;71358;45.642;13.758;2024-01-06T00:01:09;3.80;;;2.30;;
81894;SDS011;71358;45.642;13.758;2024-01-06T00:03:56;3.47;;;2.80;;
81894;SDS011;71358;45.642;13.758;2024-01-06T00:06:40;5.75;;;2.60;;
81894;SDS011;71358;45.642;13.758;2024-01-06T00:09:25;6.55;;;2.78;;
81894;SDS011;71358;45.642;13.758;2024-01-06T00:12:09;5.35;;;2.28;;
81894;SDS011;71358;45.642;13.758;2024-01-06T00:14:54;8.65;;;2.90;;
81894;SDS011;71358;45.642;13.758;2024-01-06T00:17:38;6.65;;;2.60;;
81894;SDS011;71358;45.642;13.758;2024-01-06T00:20:23;4.28;;;2.67;;
81894;SDS011;71358;45.642;13.758;2024-01-06T00:23:08;5.07;;;3.00;;
81894;SDS011;71358;45.642;13.758;2024-01-06T00:25:52;4.07;;;2.50;;
81894;SDS011;71358;45.642;13.758;2024-01-06T00:28:38;3.70;;;2.58;;
81894;SDS011;71358;45.642;13.758;2024-01-06T00:31:23;7.43;;;2.50;;
81894;SDS011;71358;45.642;13.758;2024-01-06T00:34:07;5.93;;;2.25;;
81894;SDS011;71358;45.642;13.758;2024-01-06T00:36:52;3.70;;;2.30;;
81894;SDS011;71358;45.642;13.758;2024-01-06T00:39:36;4.80;;;2.38;;
81894;SDS011;71358;45.642;13.758;2024-01-06T00:42:21;3.58;;;2.38;;
81894;SDS011;71358;45.642;13.758;2024-01-06T00:45:06;4.35;;;2.60;;
81894;SDS011;71358;45.642;13.758;2024-01-06T00:47:51;3.63;;;2.10;;
81894;SDS011;71358;45.642;13.758;2024-01-06T00:50:35;5.10;;;2.60;;
81894;SDS011;71358;45.642;13.758;2024-01-06T00:53:21;3.10;;;2.47;;
81894;SDS011;71358;45.642;13.758;2024-01-06T00:56:05;3.70;;;2.40;;
81894;SDS011;71358;45.642;13.758;2024-01-06T00:58:50;4.10;;;2.38;;
81894;SDS011;71358;45.642;13.758;2024-01-06T01:01:35;4.18;;;2.20;;
81894;SDS011;71358;45.642;13.758;2024-01-06T01:04:19;3.67;;;2.25;;
81894;SDS011;71358;45.642;13.758;2024-01-06T01:07:04;4.43;;;2.25;;
81894;SDS011;71358;45.642;13.758;2024-01-06T01:09:48;3.38;;;2.28;;
81894;SDS011;71358;45.642;13.758;2024-01-06T01:12:33;2.78;;;2.20;;
81894;SDS011;71358;45.642;13.758;2024-01-06T01:15:17;3.10;;;2.13;;
81894;SDS011;71358;45.642;13.758;2024-01-06T01:18:02;3.92;;;2.17;;
81894;SDS011;71358;45.642;13.758;2024-01-06T01:20:47;2.53;;;2.20;;
81894;SDS011;71358;45.642;13.758;2024-01-06T01:23:31;2.10;;;1.90;;
81894;SDS011;71358;45.642;13.758;2024-01-06T01:26:16;3.15;;;1.80;;
81894;SDS011;71358;45.642;13.758;2024-01-06T01:29:01;2.50;;;2.15;;
81894;SDS011;71358;45.642;13.758;2024-01-06T01:31:46;3.58;;;2.10;;
81894;SDS011;71358;45.642;13.758;2024-01-06T01:34:31;5.47;;;2.67;;
81894;SDS011;71358;45.642;13.758;2024-01-06T01:37:15;5.07;;;2.40;;
81894;SDS011;71358;45.642;13.758;2024-01-06T01:40:00;6.07;;;2.47;;
81894;SDS011;71358;45.642;13.758;2024-01-06T01:42:44;5.90;;;2.25;;
81894;SDS011;71358;45.642;13.758;2024-01-06T01:45:29;6.03;;;2.20;;
81894;SDS011;71358;45.642;13.758;2024-01-06T01:48:13;5.80;;;2.45;;
81894;SDS011;71358;45.642;13.758;2024-01-06T01:50:58;4.68;;;2.28;;
81894;SDS011;71358;45.642;13.758;2024-01-06T01:53:42;4.32;;;2.00;;
81894;SDS011;71358;45.642;13.758;2024-01-06T01:56:27;5.93;;;2.40;;
81894;SDS011;71358;45.642;13.758;2024-01-06T01:59:18;4.20;;;2.40;;
81894;SDS011;71358;45.642;13.758;2024-01-06T02:02:03;4.90;;;2.50;;
81894;SDS011;71358;45.642;13.758;2024-01-06T02:04:48;5.85;;;1.98;;
81894;SDS011;71358;45.642;13.758;2024-01-06T02:07:33;7.80;;;2.55;;
81894;SDS011;71358;45.642;13.758;2024-01-06T02:10:17;5.93;;;2.08;;
81894;SDS011;71358;45.642;13.758;2024-01-06T02:13:11;4.00;;;2.63;;
81894;SDS011;71358;45.642;13.758;2024-01-06T02:15:56;5.30;;;2.33;;
81894;SDS011;71358;45.642;13.758;2024-01-06T02:18:40;4.75;;;1.92;;
81894;SDS011;71358;45.642;13.758;2024-01-06T02:21:25;5.13;;;2.15;;
81894;SDS011;71358;45.642;13.758;2024-01-06T02:24:11;5.20;;;2.58;;
81894;SDS011;71358;45.642;13.758;2024-01-06T02:26:56;3.65;;;2.00;;
81894;SDS011;71358;45.642;13.758;2024-01-06T02:29:41;4.63;;;1.95;;
81894;SDS011;71358;45.642;13.758;2024-01-06T02:32:25;10.68;;;2.47;;
81894;SDS011;71358;45.642;13.758;2024-01-06T02:35:10;5.75;;;2.47;;
81894;SDS011;71358;45.642;13.758;2024-01-06T02:37:54;7.43;;;2.45;;
81894;SDS011;71358;45.642;13.758;2024-01-06T02:40:39;4.47;;;2.70;;
81894;SDS011;71358;45.642;13.758;2024-01-06T02:43:23;6.15;;;2.85;;
81894;SDS011;71358;45.642;13.758;2024-01-06T02:46:08;6.80;;;2.45;;
81894;SDS011;71358;45.642;13.758;2024-01-06T02:48:53;4.57;;;2.75;;
81894;SDS011;71358;45.642;13.758;2024-01-06T02:51:37;3.78;;;2.03;;
81894;SDS011;71358;45.642;13.758;2024-01-06T02:54:21;3.25;;;2.15;;
81894;SDS011;71358;45.642;13.758;2024-01-06T02:57:06;5.55;;;2.28;;
81894;SDS011;71358;45.642;13.758;2024-01-06T02:59:51;4.45;;;2.53;;
81894;SDS011;71358;45.642;13.758;2024-01-06T03:02:35;10.45;;;2.17;;
81894;SDS011;71358;45.642;13.758;2024-01-06T03:05:21;2.17;;;1.90;;
81894;SDS011;71358;45.642;13.758;2024-01-06T03:08:06;4.53;;;2.10;;
81894;SDS011;71358;45.642;13.758;2024-01-06T03:10:50;3.03;;;1.95;;
81894;SDS011;71358;45.642;13.758;2024-01-06T03:13:35;7.38;;;2.60;;
81894;SDS011;71358;45.642;13.758;2024-01-06T03:16:20;4.15;;;2.60;;
81894;SDS011;71358;45.642;13.758;2024-01-06T03:19:04;2.40;;;2.10;;
81894;SDS011;71358;45.642;13.758;2024-01-06T03:21:49;4.82;;;2.20;;
81894;SDS011;71358;45.642;13.758;2024-01-06T03:24:33;5.00;;;2.40;;
81894;SDS011;71358;45.642;13.758;2024-01-06T03:27:18;2.95;;;2.28;;
81894;SDS011;71358;45.642;13.758;2024-01-06T03:30:03;7.22;;;2.60;;
81894;SDS011;71358;45.642;13.758;2024-01-06T03:32:47;2.90;;;2.50;;
81894;SDS011;71358;45.642;13.758;2024-01-06T03:35:32;3.83;;;2.33;;
81894;SDS011;71358;45.642;13.758;2024-01-06T03:38:16;5.10;;;2.55;;
81894;SDS011;71358;45.642;13.758;2024-01-06T03:41:01;4.47;;;2.00;;
81894;SDS011;71358;45.642;13.758;2024-01-06T03:43:46;6.07;;;2.50;;
81894;SDS011;71358;45.642;13.758;2024-01-06T03:46:30;6.75;;;2.50;;
81894;SDS011;71358;45.642;13.758;2024-01-06T03:49:15;4.60;;;2.30;;
81894;SDS011;71358;45.642;13.758;2024-01-06T03:52:02;3.65;;;2.08;;
81894;SDS011;71358;45.642;13.758;2024-01-06T03:54:47;3.67;;;2.20;;
81894;SDS011;71358;45.642;13.758;2024-01-06T03:57:31;5.30;;;2.03;;
81894;SDS011;71358;45.642;13.758;2024-01-06T04:00:16;5.50;;;2.35;;
81894;SDS011;71358;45.642;13.758;2024-01-06T04:03:01;5.78;;;2.30;;
81894;SDS011;71358;45.642;13.758;2024-01-06T04:05:46;4.45;;;2.13;;
81894;SDS011;71358;45.642;13.758;2024-01-06T04:08:31;3.45;;;1.75;;
81894;SDS011;71358;45.642;13.758;2024-01-06T04:11:15;4.22;;;2.17;;
81894;SDS011;71358;45.642;13.758;2024-01-06T04:14:00;3.38;;;2.20;;
81894;SDS011;71358;45.642;13.758;2024-01-06T04:16:44;3.58;;;2.10;;
81894;SDS011;71358;45.642;13.758;2024-01-06T04:19:29;4.00;;;1.77;;
81894;SDS011;71358;45.642;13.758;2024-01-06T04:22:13;3.83;;;2.38;;
81894;SDS011;71358;45.642;13.758;2024-01-06T04:24:58;3.35;;;1.92;;
81894;SDS011;71358;45.642;13.758;2024-01-06T04:27:43;3.22;;;2.20;;
81894;SDS011;71358;45.642;13.758;2024-01-06T04:30:28;5.95;;;2.10;;
81894;SDS011;71358;45.642;13.758;2024-01-06T04:33:13;2.42;;;1.98;;
81894;SDS011;71358;45.642;13.758;2024-01-06T04:35:58;3.22;;;2.05;;
81894;SDS011;71358;45.642;13.758;2024-01-06T04:38:43;4.57;;;1.85;;
81894;SDS011;71358;45.642;13.758;2024-01-06T04:41:27;2.88;;;1.73;;
81894;SDS011;71358;45.642;13.758;2024-01-06T04:44:12;2.35;;;2.10;;
81894;SDS011;71358;45.642;13.758;2024-01-06T04:46:56;2.67;;;1.95;;
81894;SDS011;71358;45.642;13.758;2024-01-06T04:49:41;3.08;;;2.42;;
81894;SDS011;71358;45.642;13.758;2024-01-06T04:52:26;3.13;;;1.83;;
81894;SDS011;71358;45.642;13.758;2024-01-06T04:55:10;3.33;;;2.05;;
81894;SDS011;71358;45.642;13.758;2024-01-06T04:57:55;2.33;;;1.70;;
81894;SDS011;71358;45.642;13.758;2024-01-06T05:00:39;2.58;;;2.05;;
81894;SDS011;71358;45.642;13.758;2024-01-06T05:03:24;2.60;;;1.98;;
81894;SDS011;71358;45.642;13.758;2024-01-06T05:06:08;4.10;;;1.70;;
81894;SDS011;71358;45.642;13.758;2024-01-06T05:08:53;2.65;;;1.88;;
81894;SDS011;71358;45.642;13.758;2024-01-06T05:11:37;2.13;;;1.58;;
81894;SDS011;71358;45.642;13.758;2024-01-06T05:14:22;2.78;;;1.90;;
81894;SDS011;71358;45.642;13.758;2024-01-06T05:17:07;2.28;;;1.88;;
81894;SDS011;71358;45.642;13.758;2024-01-06T05:19:52;3.25;;;1.83;;
81894;SDS011;71358;45.642;13.758;2024-01-06T05:22:39;8.70;;;2.35;;
81894;SDS011;71358;45.642;13.758;2024-01-06T05:25:24;10.18;;;2.28;;
81894;SDS011;71358;45.642;13.758;2024-01-06T05:28:08;6.30;;;1.98;;
81894;SDS011;71358;45.642;13.758;2024-01-06T05:30:52;3.53;;;2.10;;
81894;SDS011;71358;45.642;13.758;2024-01-06T05:33:37;3.45;;;2.47;;
81894;SDS011;71358;45.642;13.758;2024-01-06T05:36:22;7.53;;;2.33;;
81894;SDS011;71358;45.642;13.758;2024-01-06T05:39:06;5.28;;;2.03;;
81894;SDS011;71358;45.642;13.758;2024-01-06T05:41:51;3.97;;;2.53;;
81894;SDS011;71358;45.642;13.758;2024-01-06T05:44:35;3.13;;;2.03;;
81894;SDS011;71358;45.642;13.758;2024-01-06T05:47:21;3.38;;;1.90;;
81894;SDS011;71358;45.642;13.758;2024-01-06T05:50:06;2.90;;;2.10;;
81894;SDS011;71358;45.642;13.758;2024-01-06T05:52:54;4.85;;;2.58;;
81894;SDS011;71358;45.642;13.758;2024-01-06T05:55:38;5.07;;;1.98;;
81894;SDS011;71358;45.642;13.758;2024-01-06T05:58:23;8.20;;;2.88;;
81894;SDS011;71358;45.642;13.758;2024-01-06T06:01:07;4.55;;;2.20;;
81894;SDS011;71358;45.642;13.758;2024-01-06T06:03:52;5.13;;;2.15;;
81894;SDS011;71358;45.642;13.758;2024-01-06T06:06:37;3.83;;;1.75;;
81894;SDS011;71358;45.642;13.758;2024-01-06T06:09:21;3.47;;;2.47;;
81894;SDS011;71358;45.642;13.758;2024-01-06T06:12:06;3.33;;;1.88;;
81894;SDS011;71358;45.642;13.758;2024-01-06T06:14:50;2.10;;;1.90;;
81894;SDS011;71358;45.642;13.758;2024-01-06T06:17:35;5.18;;;2.22;;
81894;SDS011;71358;45.642;13.758;2024-01-06T06:20:20;4.20;;;2.20;;
81894;SDS011;71358;45.642;13.758;2024-01-06T06:23:04;4.75;;;1.80;;
81894;SDS011;71358;45.642;13.758;2024-01-06T06:25:49;7.82;;;2.00;;
81894;SDS011;71358;45.642;13.758;2024-01-06T06:28:34;3.67;;;2.10;;
81894;SDS011;71358;45.642;13.758;2024-01-06T06:31:18;3.45;;;2.05;;
81894;SDS011;71358;45.642;13.758;2024-01-06T06:34:03;3.70;;;1.67;;
81894;SDS011;71358;45.642;13.758;2024-01-06T06:36:48;5.32;;;2.50;;
81894;SDS011;71358;45.642;13.758;2024-01-06T06:39:33;3.95;;;2.20;;
81894;SDS011;71358;45.642;13.758;2024-01-06T06:42:18;3.45;;;2.03;;
81894;SDS011;71358;45.642;13.758;2024-01-06T06:45:02;3.47;;;1.98;;
81894;SDS011;71358;45.642;13.758;2024-01-06T06:47:48;2.95;;;2.13;;
81894;SDS011;71358;45.642;13.758;2024-01-06T06:50:33;3.03;;;2.17;;
81894;SDS011;71358;45.642;13.758;2024-01-06T06:53:18;3.25;;;2.67;;
81894;SDS011;71358;45.642;13.758;2024-01-06T06:56:02;4.38;;;1.88;;
81894;SDS011;71358;45.642;13.758;2024-01-06T06:58:47;3.17;;;1.95;;
81894;SDS011;71358;45.642;13.758;2024-01-06T07:01:32;3.97;;;2.25;;
81894;SDS011;71358;45.642;13.758;2024-01-06T07:04:16;3.85;;;2.00;;
81894;SDS011;71358;45.642;13.758;2024-01-06T07:07:01;6.55;;;2.20;;
81894;SDS011;71358;45.642;13.758;2024-01-06T07:09:45;3.30;;;1.98;;
81894;SDS011;71358;45.642;13.758;2024-01-06T07:12:30;2.75;;;1.90;;
81894;SDS011;71358;45.642;13.758;2024-01-06T07:15:15;3.28;;;1.92;;
81894;SDS011;71358;45.642;13.758;2024-01-06T07:17:59;4.40;;;2.25;;
81894;SDS011;71358;45.642;13.758;2024-01-06T07:20:44;4.28;;;2.50;;
81894;SDS011;71358;45.642;13.758;2024-01-06T07:23:29;4.70;;;2.38;;
81894;SDS011;71358;45.642;13.758;2024-01-06T07:26:13;4.38;;;2.13;;
81894;SDS011;71358;45.642;13.758;2024-01-06T07:28:58;2.38;;;1.85;;
81894;SDS011;71358;45.642;13.758;2024-01-06T07:31:43;2.47;;;1.73;;
81894;SDS011;71358;45.642;13.758;2024-01-06T07:34:27;3.63;;;2.00;;
81894;SDS011;71358;45.642;13.758;2024-01-06T07:37:12;3.10;;;2.00;;
81894;SDS011;71358;45.642;13.758;2024-01-06T07:39:56;2.88;;;2.10;;
81894;SDS011;71358;45.642;13.758;2024-01-06T07:42:42;4.95;;;2.40;;
81894;SDS011;71358;45.642;13.758;2024-01-06T07:45:27;4.85;;;1.85;;
81894;SDS011;71358;45.642;13.758;2024-01-06T07:48:11;3.33;;;2.28;;
81894;SDS011;71358;45.642;13.758;2024-01-06T07:50:56;3.45;;;2.28;;
81894;SDS011;71358;45.642;13.758;2024-01-06T07:53:40;2.88;;;1.70;;
81894;SDS011;71358;45.642;13.758;2024-01-06T07:56:26;4.20;;;2.05;;
81894;SDS011;71358;45.642;13.758;2024-01-06T07:59:10;2.80;;;1.95;;
81894;SDS011;71358;45.642;13.758;2024-01-06T08:01:55;5.15;;;2.40;;
81894;SDS011;71358;45.642;13.758;2024-01-06T08:04:39;4.18;;;2.30;;
81894;SDS011;71358;45.642;13.758;2024-01-06T08:07:24;5.43;;;2.38;;
81894;SDS011;71358;45.642;13.758;2024-01-06T08:10:08;6.95;;;2.38;;
81894;SDS011;71358;45.642;13.758;2024-01-06T08:12:53;3.72;;;2.30;;
81894;SDS011;71358;45.642;13.758;2024-01-06T08:15:37;2.97;;;2.05;;
81894;SDS011;71358;45.642;13.758;2024-01-06T08:18:22;2.88;;;2.20;;
81894;SDS011;71358;45.642;13.758;2024-01-06T08:21:07;3.72;;;1.80;;
81894;SDS011;71358;45.642;13.758;2024-01-06T08:23:52;2.70;;;2.00;;
81894;SDS011;71358;45.642;13.758;2024-01-06T08:26:36;3.60;;;2.30;;
81894;SDS011;71358;45.642;13.758;2024-01-06T08:29:35;2.60;;;2.20;;
81894;SDS011;71358;45.642;13.758;2024-01-06T08:32:22;4.72;;;2.30;;
81894;SDS011;71358;45.642;13.758;2024-01-06T08:35:07;2.85;;;1.73;;
81894;SDS011;71358;45.642;13.758;2024-01-06T08:37:52;4.20;;;2.10;;
81894;SDS011;71358;45.642;13.758;2024-01-06T08:40:36;4.65;;;2.58;;
81894;SDS011;71358;45.642;13.758;2024-01-06T08:43:21;5.05;;;2.88;;
81894;SDS011;71358;45.642;13.758;2024-01-06T08:46:06;2.67;;;2.35;;
81894;SDS011;71358;45.642;13.758;2024-01-06T08:48:51;4.13;;;2.30;;
81894;SDS011;71358;45.642;13.758;2024-01-06T08:51:35;4.70;;;2.60;;
81894;SDS011;71358;45.642;13.758;2024-01-06T08:54:20;5.45;;;2.55;;
81894;SDS011;71358;45.642;13.758;2024-01-06T08:57:04;6.13;;;2.35;;
81894;SDS011;71358;45.642;13.758;2024-01-06T08:59:50;5.53;;;2.60;;
81894;SDS011;71358;45.642;13.758;2024-01-06T09:02:34;3.92;;;2.50;;
81894;SDS011;71358;45.642;13.758;2024-01-06T09:05:19;4.50;;;3.08;;
81894;SDS011;71358;45.642;13.758;2024-01-06T09:08:04;5.10;;;2.92;;
81894;SDS011;71358;45.642;13.758;2024-01-06T09:10:49;4.05;;;2.88;;
81894;SDS011;71358;45.642;13.758;2024-01-06T09:13:35;5.35;;;3.10;;
81894;SDS011;71358;45.642;13.758;2024-01-06T09:16:19;3.72;;;3.10;;
81894;SDS011;71358;45.642;13.758;2024-01-06T09:19:04;5.40;;;3.38;;
81894;SDS011;71358;45.642;13.758;2024-01-06T09:21:48;4.90;;;3.70;;
81894;SDS011;71358;45.642;13.758;2024-01-06T09:24:33;3.53;;;2.92;;
81894;SDS011;71358;45.642;13.758;2024-01-06T09:27:18;3.38;;;3.03;;
81894;SDS011;71358;45.642;13.758;2024-01-06T09:30:03;5.43;;;3.28;;
81894;SDS011;71358;45.642;13.758;2024-01-06T09:32:48;6.38;;;3.70;;
81894;SDS011;71358;45.642;13.758;2024-01-06T09:35:32;4.72;;;3.60;;
81894;SDS011;71358;45.642;13.758;2024-01-06T09:38:17;4.50;;;3.08;;
81894;SDS011;71358;45.642;13.758;2024-01-06T09:41:02;6.93;;;5.10;;
81894;SDS011;71358;45.642;13.758;2024-01-06T09:43:47;8.77;;;5.07;;
81894;SDS011;71358;45.642;13.758;2024-01-06T09:46:32;4.97;;;3.65;;
81894;SDS011;71358;45.642;13.758;2024-01-06T09:49:18;9.05;;;3.70;;
81894;SDS011;71358;45.642;13.758;2024-01-06T09:52:09;4.25;;;3.70;;
81894;SDS011;71358;45.642;13.758;2024-01-06T09:55:01;5.60;;;4.20;;
81894;SDS011;71358;45.642;13.758;2024-01-06T09:57:49;5.38;;;3.50;;
81894;SDS011;71358;45.642;13.758;2024-01-06T10:00:34;5.85;;;2.80;;
81894;SDS011;71358;45.642;13.758;2024-01-06T10:03:18;9.80;;;3.58;;
81894;SDS011;71358;45.642;13.758;2024-01-06T10:06:04;7.90;;;3.60;;
81894;SDS011;71358;45.642;13.758;2024-01-06T10:08:49;7.22;;;3.70;;
81894;SDS011;71358;45.642;13.758;2024-01-06T10:11:35;7.53;;;4.32;;
81894;SDS011;71358;45.642;13.758;2024-01-06T10:14:20;6.25;;;3.63;;
81894;SDS011;71358;45.642;13.758;2024-01-06T10:17:06;9.40;;;4.35;;
81894;SDS011;71358;45.642;13.758;2024-01-06T10:19:51;8.80;;;4.20;;
81894;SDS011;71358;45.642;13.758;2024-01-06T10:22:37;7.22;;;3.72;;
81894;SDS011;71358;45.642;13.758;2024-01-06T10:25:24;7.80;;;4.13;;
81894;SDS011;71358;45.642;13.758;2024-01-06T10:28:12;8.48;;;3.72;;
81894;SDS011;71358;45.642;13.758;2024-01-06T10:30:57;10.15;;;3.70;;
81894;SDS011;71358;45.642;13.758;2024-01-06T10:33:42;8.02;;;3.70;;
81894;SDS011;71358;45.642;13.758;2024-01-06T10:36:27;9.65;;;4.53;;
81894;SDS011;71358;45.642;13.758;2024-01-06T10:39:12;7.63;;;4.35;;
81894;SDS011;71358;45.642;13.758;2024-01-06T10:41:59;10.20;;;3.75;;
81894;SDS011;71358;45.642;13.758;2024-01-06T10:44:46;10.45;;;4.20;;
81894;SDS011;71358;45.642;13.758;2024-01-06T10:47:31;8.82;;;4.78;;
81894;SDS011;71358;45.642;13.758;2024-01-06T10:50:17;15.55;;;4.68;;
81894;SDS011;71358;45.642;13.758;2024-01-06T10:53:01;10.27;;;4.35;;
81894;SDS011;71358;45.642;13.758;2024-01-06T10:55:46;7.40;;;3.90;;
81894;SDS011;71358;45.642;13.758;2024-01-06T10:58:35;13.85;;;3.95;;
81894;SDS011;71358;45.642;13.758;2024-01-06T11:01:26;9.57;;;4.20;;
81894;SDS011;71358;45.642;13.758;2024-01-06T11:04:13;12.18;;;4.53;;
81894;SDS011;71358;45.642;13.758;2024-01-06T11:06:58;8.98;;;3.97;;
81894;SDS011;71358;45.642;13.758;2024-01-06T11:09:47;8.85;;;4.30;;
81894;SDS011;71358;45.642;13.758;2024-01-06T11:12:43;12.25;;;4.65;;
81894;SDS011;71358;45.642;13.758;2024-01-06T11:15:38;6.45;;;4.43;;
81894;SDS011;71358;45.642;13.758;2024-01-06T11:18:34;7.38;;;4.38;;
81894;SDS011;71358;45.642;13.758;2024-01-06T11:21:22;9.68;;;4.38;;
81894;SDS011;71358;45.642;13.758;2024-01-06T11:24:15;13.80;;;4.88;;
81894;SDS011;71358;45.642;13.758;2024-01-06T11:27:06;15.55;;;4.95;;
81894;SDS011;71358;45.642;13.758;2024-01-06T11:29:53;11.52;;;5.15;;
81894;SDS011;71358;45.642;13.758;2024-01-06T11:32:39;12.60;;;5.60;;
81894;SDS011;71358;45.642;13.758;2024-01-06T11:35:28;13.07;;;5.78;;
81894;SDS011;71358;45.642;13.758;2024-01-06T11:38:14;11.57;;;4.97;;
81894;SDS011;71358;45.642;13.758;2024-01-06T11:41:00;16.13;;;5.10;;
81894;SDS011;71358;45.642;13.758;2024-01-06T11:43:44;9.93;;;5.82;;
81894;SDS011;71358;45.642;13.758;2024-01-06T11:46:30;9.23;;;5.25;;
81894;SDS011;71358;45.642;13.758;2024-01-06T11:49:18;6.65;;;5.63;;
81894;SDS011;71358;45.642;13.758;2024-01-06T11:52:04;9.23;;;5.10;;
81894;SDS011;71358;45.642;13.758;2024-01-06T11:54:49;10.38;;;5.32;;
81894;SDS011;71358;45.642;13.758;2024-01-06T11:57:36;11.15;;;4.78;;
81894;SDS011;71358;45.642;13.758;2024-01-06T12:00:21;9.85;;;4.97;;
81894;SDS011;71358;45.642;13.758;2024-01-06T12:03:06;7.60;;;4.93;;
81894;SDS011;71358;45.642;13.758;2024-01-06T12:06:00;8.30;;;4.68;;
81894;SDS011;71358;45.642;13.758;2024-01-06T12:08:46;5.68;;;4.60;;
81894;SDS011;71358;45.642;13.758;2024-01-06T12:11:31;11.32;;;5.03;;
81894;SDS011;71358;45.642;13.758;2024-01-06T12:14:15;6.60;;;4.28;;
81894;SDS011;71358;45.642;13.758;2024-01-06T12:17:00;6.97;;;3.97;;
81894;SDS011;71358;45.642;13.758;2024-01-06T12:19:48;5.95;;;4.47;;
81894;SDS011;71358;45.642;13.758;2024-01-06T12:22:32;6.90;;;4.57;;
81894;SDS011;71358;45.642;13.758;2024-01-06T12:25:17;6.32;;;4.10;;
81894;SDS011;71358;45.642;13.758;2024-01-06T12:28:01;7.90;;;4.85;;
81894;SDS011;71358;45.642;13.758;2024-01-06T12:30:46;9.77;;;4.78;;
81894;SDS011;71358;45.642;13.758;2024-01-06T12:33:30;7.68;;;4.28;;
81894;SDS011;71358;45.642;13.758;2024-01-06T12:36:16;6.30;;;4.22;;
81894;SDS011;71358;45.642;13.758;2024-01-06T12:39:01;6.00;;;4.10;;
81894;SDS011;71358;45.642;13.758;2024-01-06T12:41:47;6.32;;;4.38;;
81894;SDS011;71358;45.642;13.758;2024-01-06T12:44:31;6.85;;;4.28;;
81894;SDS011;71358;45.642;13.758;2024-01-06T12:47:17;5.80;;;4.07;;
81894;SDS011;71358;45.642;13.758;2024-01-06T12:50:02;6.53;;;4.00;;
81894;SDS011;71358;45.642;13.758;2024-01-06T12:52:48;5.18;;;3.97;;
81894;SDS011;71358;45.642;13.758;2024-01-06T12:55:32;6.20;;;4.30;;
81894;SDS011;71358;45.642;13.758;2024-01-06T12:58:17;5.05;;;3.85;;
81894;SDS011;71358;45.642;13.758;2024-01-06T13:01:01;5.70;;;3.72;;
81894;SDS011;71358;45.642;13.758;2024-01-06T13:03:46;5.45;;;4.22;;
81894;SDS011;71358;45.642;13.758;2024-01-06T13:06:31;5.13;;;4.07;;
81894;SDS011;71358;45.642;13.758;2024-01-06T13:09:15;5.13;;;4.00;;
81894;SDS011;71358;45.642;13.758;2024-01-06T13:12:00;5.85;;;3.85;;
81894;SDS011;71358;45.642;13.758;2024-01-06T13:14:44;4.15;;;3.55;;
81894;SDS011;71358;45.642;13.758;2024-01-06T13:17:31;4.32;;;3.92;;
81894;SDS011;71358;45.642;13.758;2024-01-06T13:20:15;4.10;;;3.65;;
81894;SDS011;71358;45.642;13.758;2024-01-06T13:22:59;4.72;;;4.10;;
81894;SDS011;71358;45.642;13.758;2024-01-06T13:25:44;4.95;;;3.80;;
81894;SDS011;71358;45.642;13.758;2024-01-06T13:28:28;4.78;;;3.97;;
81894;SDS011;71358;45.642;13.758;2024-01-06T13:31:13;5.50;;;3.80;;
81894;SDS011;71358;45.642;13.758;2024-01-06T13:33:57;5.18;;;4.05;;
81894;SDS011;71358;45.642;13.758;2024-01-06T13:36:42;5.63;;;4.22;;
81894;SDS011;71358;45.642;13.758;2024-01-06T13:39:27;5.40;;;4.05;;
81894;SDS011;71358;45.642;13.758;2024-01-06T13:42:11;4.70;;;3.97;;
81894;SDS011;71358;45.642;13.758;2024-01-06T13:44:56;4.60;;;3.88;;
81894;SDS011;71358;45.642;13.758;2024-01-06T13:47:44;4.22;;;3.83;;
81894;SDS011;71358;45.642;13.758;2024-01-06T13:50:29;5.18;;;4.07;;
81894;SDS011;71358;45.642;13.758;2024-01-06T13:53:13;4.32;;;3.92;;
81894;SDS011;71358;45.642;13.758;2024-01-06T13:55:59;5.03;;;3.63;;
81894;SDS011;71358;45.642;13.758;2024-01-06T13:58:43;6.25;;;3.88;;
81894;SDS011;71358;45.642;13.758;2024-01-06T14:01:28;4.45;;;3.53;;
81894;SDS011;71358;45.642;13.758;2024-01-06T14:04:13;4.68;;;4.18;;
81894;SDS011;71358;45.642;13.758;2024-01-06T14:06:57;4.30;;;4.00;;
81894;SDS011;71358;45.642;13.758;2024-01-06T14:09:42;4.35;;;3.72;;
81894;SDS011;71358;45.642;13.758;2024-01-06T14:12:27;6.32;;;4.00;;
81894;SDS011;71358;45.642;13.758;2024-01-06T14:15:11;3.83;;;3.42;;
81894;SDS011;71358;45.642;13.758;2024-01-06T14:17:56;5.93;;;3.92;;
81894;SDS011;71358;45.642;13.758;2024-01-06T14:20:40;6.05;;;4.07;;
81894;SDS011;71358;45.642;13.758;2024-01-06T14:23:25;6.38;;;3.67;;
81894;SDS011;71358;45.642;13.758;2024-01-06T14:26:11;5.32;;;3.80;;
81894;SDS011;71358;45.642;13.758;2024-01-06T14:28:58;6.30;;;3.88;;
81894;SDS011;71358;45.642;13.758;2024-01-06T14:31:42;3.92;;;3.63;;
81894;SDS011;71358;45.642;13.758;2024-01-06T14:34:27;4.03;;;3.65;;
81894;SDS011;71358;45.642;13.758;2024-01-06T14:37:14;3.92;;;3.08;;
81894;SDS011;71358;45.642;13.758;2024-01-06T14:39:59;3.60;;;3.30;;
81894;SDS011;71358;45.642;13.758;2024-01-06T14:42:48;3.80;;;3.42;;
81894;SDS011;71358;45.642;13.758;2024-01-06T14:45:36;3.35;;;2.97;;
81894;SDS011;71358;45.642;13.758;2024-01-06T14:48:26;3.70;;;3.40;;
81894;SDS011;71358;45.642;13.758;2024-01-06T14:51:13;3.80;;;3.42;;
81894;SDS011;71358;45.642;13.758;2024-01-06T14:54:01;3.63;;;2.83;;
81894;SDS011;71358;45.642;13.758;2024-01-06T14:56:45;5.10;;;3.03;;
81894;SDS011;71358;45.642;13.758;2024-01-06T14:59:30;3.40;;;3.10;;
81894;SDS011;71358;45.642;13.758;2024-01-06T15:02:16;3.65;;;2.97;;
81894;SDS011;71358;45.642;13.758;2024-01-06T15:05:00;2.90;;;2.70;;
81894;SDS011;71358;45.642;13.758;2024-01-06T15:07:45;3.83;;;2.90;;
81894;SDS011;71358;45.642;13.758;2024-01-06T15:10:32;5.35;;;3.13;;
81894;SDS011;71358;45.642;13.758;2024-01-06T15:13:17;4.50;;;3.53;;
81894;SDS011;71358;45.642;13.758;2024-01-06T15:16:02;3.90;;;3.20;;
81894;SDS011;71358;45.642;13.758;2024-01-06T15:18:46;3.20;;;2.90;;
81894;SDS011;71358;45.642;13.758;2024-01-06T15:21:31;3.30;;;3.08;;
81894;SDS011;71358;45.642;13.758;2024-01-06T15:24:16;3.55;;;2.65;;
81894;SDS011;71358;45.642;13.758;2024-01-06T15:27:02;4.00;;;2.90;;
81894;SDS011;71358;45.642;13.758;2024-01-06T15:29:46;3.28;;;2.97;;
81894;SDS011;71358;45.642;13.758;2024-01-06T15:32:31;2.60;;;2.40;;
81894;SDS011;71358;45.642;13.758;2024-01-06T15:35:15;2.70;;;2.35;;
81894;SDS011;71358;45.642;13.758;2024-01-06T15:38:00;2.95;;;2.65;;
81894;SDS011;71358;45.642;13.758;2024-01-06T15:40:44;2.70;;;2.50;;
81894;SDS011;71358;45.642;13.758;2024-01-06T15:43:29;3.45;;;2.78;;
81894;SDS011;71358;45.642;13.758;2024-01-06T15:46:14;3.33;;;2.47;;
81894;SDS011;71358;45.642;13.758;2024-01-06T15:48:59;2.38;;;2.17;;
81894;SDS011;71358;45.642;13.758;2024-01-06T15:51:44;3.83;;;2.35;;
81894;SDS011;71358;45.642;13.758;2024-01-06T15:54:28;2.50;;;2.00;;
81894;SDS011;71358;45.642;13.758;2024-01-06T15:57:13;3.33;;;2.47;;
81894;SDS011;71358;45.642;13.758;2024-01-06T15:59:59;1.95;;;1.52;;
81894;SDS011;71358;45.642;13.758;2024-01-06T16:02:43;2.95;;;2.10;;
81894;SDS011;71358;45.642;13.758;2024-01-06T16:05:28;3.40;;;2.13;;
81894;SDS011;71358;45.642;13.758;2024-01-06T16:08:13;2.65;;;1.90;;
81894;SDS011;71358;45.642;13.758;2024-01-06T16:10:57;4.22;;;2.47;;
81894;SDS011;71358;45.642;13.758;2024-01-06T16:13:41;3.25;;;2.60;;
81894;SDS011;71358;45.642;13.758;2024-01-06T16:16:29;2.85;;;2.05;;
81894;SDS011;71358;45.642;13.758;2024-01-06T16:19:14;4.50;;;2.40;;